sensor_id;sensor_type;location;lat;lon;timestamp;temperature;humidity
17200;DHT22;8716;52.268;20.968;2023-06-26T00:01:33;17.60;99.90
17200;DHT22;8716;52.268;20.968;2023-06-26T00:04:01;17.60;99.90
17200;DHT22;8716;52.268;20.968;2023-06-26T00:06:30;17.60;99.90
17200;DHT22;8716;52.268;20.968;2023-06-26T00:09:01;17.60;99.90
17200;DHT22;8716;52.268;20.968;2023-06-26T00:11:32;17.50;99.90
17200;DHT22;8716;52.268;20.968;2023-06-26T00:14:01;17.50;99.90
17200;DHT22;8716;52.268;20.968;2023-06-26T00:16:29;17.40;99.90
17200;DHT22;8716;52.268;20.968;2023-06-26T00:18:58;17.40;99.90
17200;DHT22;8716;52.268;20.968;2023-06-26T00:21:26;17.40;99.90
17200;DHT22;8716;52.268;20.968;2023-06-26T00:23:55;17.40;99.90
17200;DHT22;8716;52.268;20.968;2023-06-26T00:26:27;17.40;99.90
17200;DHT22;8716;52.268;20.968;2023-06-26T00:28:56;17.40;99.90
17200;DHT22;8716;52.268;20.968;2023-06-26T00:31:24;17.40;99.90
17200;DHT22;8716;52.268;20.968;2023-06-26T00:33:53;17.30;99.90
17200;DHT22;8716;52.268;20.968;2023-06-26T00:36:23;17.40;99.90
17200;DHT22;8716;52.268;20.968;2023-06-26T00:38:53;17.30;99.90
17200;DHT22;8716;52.268;20.968;2023-06-26T00:41:21;17.40;99.90
17200;DHT22;8716;52.268;20.968;2023-06-26T00:43:51;17.30;99.90
17200;DHT22;8716;52.268;20.968;2023-06-26T00:46:20;17.30;99.90
17200;DHT22;8716;52.268;20.968;2023-06-26T00:48:48;17.20;99.90
17200;DHT22;8716;52.268;20.968;2023-06-26T00:51:17;17.20;99.90
17200;DHT22;8716;52.268;20.968;2023-06-26T00:53:45;17.20;99.90
17200;DHT22;8716;52.268;20.968;2023-06-26T00:56:17;17.10;99.90
17200;DHT22;8716;52.268;20.968;2023-06-26T00:58:46;17.10;99.90
17200;DHT22;8716;52.268;20.968;2023-06-26T01:01:18;17.10;99.90
17200;DHT22;8716;52.268;20.968;2023-06-26T01:03:49;17.10;99.90
17200;DHT22;8716;52.268;20.968;2023-06-26T01:06:21;17.00;99.90
17200;DHT22;8716;52.268;20.968;2023-06-26T01:08:50;17.00;99.90
17200;DHT22;8716;52.268;20.968;2023-06-26T01:11:19;17.00;99.90
17200;DHT22;8716;52.268;20.968;2023-06-26T01:13:47;17.00;99.90
17200;DHT22;8716;52.268;20.968;2023-06-26T01:16:20;17.00;99.90
17200;DHT22;8716;52.268;20.968;2023-06-26T01:18:52;17.00;99.90
17200;DHT22;8716;52.268;20.968;2023-06-26T01:21:20;17.00;99.90
17200;DHT22;8716;52.268;20.968;2023-06-26T01:24:07;17.00;99.90
17200;DHT22;8716;52.268;20.968;2023-06-26T01:26:40;17.00;99.90
17200;DHT22;8716;52.268;20.968;2023-06-26T01:29:15;17.00;99.90
17200;DHT22;8716;52.268;20.968;2023-06-26T01:31:44;16.90;99.90
17200;DHT22;8716;52.268;20.968;2023-06-26T01:34:15;16.90;99.90
17200;DHT22;8716;52.268;20.968;2023-06-26T01:36:49;16.90;99.90
17200;DHT22;8716;52.268;20.968;2023-06-26T01:39:18;16.80;99.90
17200;DHT22;8716;52.268;20.968;2023-06-26T01:41:48;16.80;99.90
17200;DHT22;8716;52.268;20.968;2023-06-26T01:44:24;16.80;99.90
17200;DHT22;8716;52.268;20.968;2023-06-26T01:47:01;16.70;99.90
17200;DHT22;8716;52.268;20.968;2023-06-26T01:49:38;16.70;99.90
17200;DHT22;8716;52.268;20.968;2023-06-26T01:52:12;16.70;99.90
17200;DHT22;8716;52.268;20.968;2023-06-26T01:54:52;16.70;99.90
17200;DHT22;8716;52.268;20.968;2023-06-26T01:57:22;16.60;99.90
17200;DHT22;8716;52.268;20.968;2023-06-26T01:59:56;16.60;99.90
17200;DHT22;8716;52.268;20.968;2023-06-26T02:02:27;16.60;99.90
17200;DHT22;8716;52.268;20.968;2023-06-26T02:04:56;16.50;99.90
17200;DHT22;8716;52.268;20.968;2023-06-26T02:07:24;16.50;99.90
17200;DHT22;8716;52.268;20.968;2023-06-26T02:09:55;16.50;99.90
17200;DHT22;8716;52.268;20.968;2023-06-26T02:12:26;16.50;99.90
17200;DHT22;8716;52.268;20.968;2023-06-26T02:14:57;16.50;99.90
17200;DHT22;8716;52.268;20.968;2023-06-26T02:17:26;16.40;99.90
17200;DHT22;8716;52.268;20.968;2023-06-26T02:19:55;16.50;99.90
17200;DHT22;8716;52.268;20.968;2023-06-26T02:22:23;16.40;99.90
17200;DHT22;8716;52.268;20.968;2023-06-26T02:24:52;16.40;99.90
17200;DHT22;8716;52.268;20.968;2023-06-26T02:27:20;16.40;99.90
17200;DHT22;8716;52.268;20.968;2023-06-26T02:29:49;16.40;99.90
17200;DHT22;8716;52.268;20.968;2023-06-26T02:32:18;16.40;99.90
17200;DHT22;8716;52.268;20.968;2023-06-26T02:34:49;16.40;99.90
17200;DHT22;8716;52.268;20.968;2023-06-26T02:37:19;16.40;99.90
17200;DHT22;8716;52.268;20.968;2023-06-26T02:39:50;16.40;99.90
17200;DHT22;8716;52.268;20.968;2023-06-26T02:42:19;16.40;99.90
17200;DHT22;8716;52.268;20.968;2023-06-26T02:44:48;16.40;99.90
17200;DHT22;8716;52.268;20.968;2023-06-26T02:47:16;16.40;99.90
17200;DHT22;8716;52.268;20.968;2023-06-26T02:49:45;16.40;99.90
17200;DHT22;8716;52.268;20.968;2023-06-26T02:52:14;16.40;99.90
17200;DHT22;8716;52.268;20.968;2023-06-26T02:54:42;16.40;99.90
17200;DHT22;8716;52.268;20.968;2023-06-26T02:57:12;16.50;99.90
17200;DHT22;8716;52.268;20.968;2023-06-26T02:59:42;16.50;99.90
17200;DHT22;8716;52.268;20.968;2023-06-26T03:02:13;16.50;99.90
17200;DHT22;8716;52.268;20.968;2023-06-26T03:04:45;16.60;99.90
17200;DHT22;8716;52.268;20.968;2023-06-26T03:07:14;16.60;99.90
17200;DHT22;8716;52.268;20.968;2023-06-26T03:09:43;16.60;99.90
17200;DHT22;8716;52.268;20.968;2023-06-26T03:12:12;16.60;99.90
17200;DHT22;8716;52.268;20.968;2023-06-26T03:14:41;16.60;99.90
17200;DHT22;8716;52.268;20.968;2023-06-26T03:17:17;16.60;99.90
17200;DHT22;8716;52.268;20.968;2023-06-26T03:19:47;16.60;99.90
17200;DHT22;8716;52.268;20.968;2023-06-26T03:22:20;16.70;99.90
17200;DHT22;8716;52.268;20.968;2023-06-26T03:24:49;16.70;99.90
17200;DHT22;8716;52.268;20.968;2023-06-26T03:27:22;16.70;99.90
17200;DHT22;8716;52.268;20.968;2023-06-26T03:29:51;16.80;99.90
17200;DHT22;8716;52.268;20.968;2023-06-26T03:32:23;16.80;99.90
17200;DHT22;8716;52.268;20.968;2023-06-26T03:34:52;16.90;99.90
17200;DHT22;8716;52.268;20.968;2023-06-26T03:37:21;16.90;99.90
17200;DHT22;8716;52.268;20.968;2023-06-26T03:39:50;17.00;99.90
17200;DHT22;8716;52.268;20.968;2023-06-26T03:42:18;17.00;99.90
17200;DHT22;8716;52.268;20.968;2023-06-26T03:44:49;17.10;99.90
17200;DHT22;8716;52.268;20.968;2023-06-26T03:47:18;17.20;99.90
17200;DHT22;8716;52.268;20.968;2023-06-26T03:49:48;17.20;99.90
17200;DHT22;8716;52.268;20.968;2023-06-26T03:52:16;17.30;99.90
17200;DHT22;8716;52.268;20.968;2023-06-26T03:54:45;17.40;99.90
17200;DHT22;8716;52.268;20.968;2023-06-26T03:57:16;17.40;99.90
17200;DHT22;8716;52.268;20.968;2023-06-26T03:59:46;17.50;99.90
17200;DHT22;8716;52.268;20.968;2023-06-26T04:02:15;17.60;99.90
17200;DHT22;8716;52.268;20.968;2023-06-26T04:04:43;17.70;99.90
17200;DHT22;8716;52.268;20.968;2023-06-26T04:07:13;17.70;99.90
17200;DHT22;8716;52.268;20.968;2023-06-26T04:09:42;17.80;99.90
17200;DHT22;8716;52.268;20.968;2023-06-26T04:12:10;17.90;99.90
17200;DHT22;8716;52.268;20.968;2023-06-26T04:14:38;18.00;99.90
17200;DHT22;8716;52.268;20.968;2023-06-26T04:17:07;18.10;99.90
17200;DHT22;8716;52.268;20.968;2023-06-26T04:19:37;18.10;99.90
17200;DHT22;8716;52.268;20.968;2023-06-26T04:22:05;18.20;99.90
17200;DHT22;8716;52.268;20.968;2023-06-26T04:24:35;18.30;99.90
17200;DHT22;8716;52.268;20.968;2023-06-26T04:27:04;18.40;99.90
17200;DHT22;8716;52.268;20.968;2023-06-26T04:29:32;18.50;99.90
17200;DHT22;8716;52.268;20.968;2023-06-26T04:32:01;18.50;99.90
17200;DHT22;8716;52.268;20.968;2023-06-26T04:34:29;18.60;99.90
17200;DHT22;8716;52.268;20.968;2023-06-26T04:36:59;18.70;99.90
17200;DHT22;8716;52.268;20.968;2023-06-26T04:39:30;18.80;99.90
17200;DHT22;8716;52.268;20.968;2023-06-26T04:42:00;18.90;99.90
17200;DHT22;8716;52.268;20.968;2023-06-26T04:44:28;19.10;99.90
17200;DHT22;8716;52.268;20.968;2023-06-26T04:46:57;19.20;99.90
17200;DHT22;8716;52.268;20.968;2023-06-26T04:49:25;19.30;99.90
17200;DHT22;8716;52.268;20.968;2023-06-26T04:51:54;19.50;99.90
17200;DHT22;8716;52.268;20.968;2023-06-26T04:54:23;19.60;99.90
17200;DHT22;8716;52.268;20.968;2023-06-26T04:56:51;19.90;99.90
17200;DHT22;8716;52.268;20.968;2023-06-26T04:59:21;20.10;99.90
17200;DHT22;8716;52.268;20.968;2023-06-26T05:01:49;20.30;99.90
17200;DHT22;8716;52.268;20.968;2023-06-26T05:04:17;20.60;99.90
17200;DHT22;8716;52.268;20.968;2023-06-26T05:06:45;20.80;99.90
17200;DHT22;8716;52.268;20.968;2023-06-26T05:09:14;21.10;99.90
17200;DHT22;8716;52.268;20.968;2023-06-26T05:11:42;21.40;99.90
17200;DHT22;8716;52.268;20.968;2023-06-26T05:14:11;21.80;99.90
17200;DHT22;8716;52.268;20.968;2023-06-26T05:16:42;22.20;99.90
17200;DHT22;8716;52.268;20.968;2023-06-26T05:19:10;22.70;99.90
17200;DHT22;8716;52.268;20.968;2023-06-26T05:21:38;23.10;99.90
17200;DHT22;8716;52.268;20.968;2023-06-26T05:24:07;23.60;99.90
17200;DHT22;8716;52.268;20.968;2023-06-26T05:26:37;24.10;99.90
17200;DHT22;8716;52.268;20.968;2023-06-26T05:29:09;24.50;99.90
17200;DHT22;8716;52.268;20.968;2023-06-26T05:31:42;25.10;99.90
17200;DHT22;8716;52.268;20.968;2023-06-26T05:34:13;25.80;99.90
17200;DHT22;8716;52.268;20.968;2023-06-26T05:36:42;26.60;99.90
17200;DHT22;8716;52.268;20.968;2023-06-26T05:39:11;27.40;99.90
17200;DHT22;8716;52.268;20.968;2023-06-26T05:41:40;28.00;99.90
17200;DHT22;8716;52.268;20.968;2023-06-26T05:44:09;28.70;99.90
17200;DHT22;8716;52.268;20.968;2023-06-26T05:46:40;29.40;99.90
17200;DHT22;8716;52.268;20.968;2023-06-26T05:49:09;30.20;99.90
17200;DHT22;8716;52.268;20.968;2023-06-26T05:51:41;31.10;99.90
17200;DHT22;8716;52.268;20.968;2023-06-26T05:54:11;32.00;99.20
17200;DHT22;8716;52.268;20.968;2023-06-26T05:56:40;32.70;96.30
17200;DHT22;8716;52.268;20.968;2023-06-26T05:59:12;33.30;93.70
17200;DHT22;8716;52.268;20.968;2023-06-26T06:01:41;34.00;91.70
17200;DHT22;8716;52.268;20.968;2023-06-26T06:04:11;34.60;90.10
17200;DHT22;8716;52.268;20.968;2023-06-26T06:06:39;35.20;85.40
17200;DHT22;8716;52.268;20.968;2023-06-26T06:09:08;35.90;83.20
17200;DHT22;8716;52.268;20.968;2023-06-26T06:11:36;36.30;79.50
17200;DHT22;8716;52.268;20.968;2023-06-26T06:14:04;36.80;76.00
17200;DHT22;8716;52.268;20.968;2023-06-26T06:16:33;37.20;74.20
17200;DHT22;8716;52.268;20.968;2023-06-26T06:19:01;37.70;72.20
17200;DHT22;8716;52.268;20.968;2023-06-26T06:21:31;38.10;70.60
17200;DHT22;8716;52.268;20.968;2023-06-26T06:24:00;38.50;68.70
17200;DHT22;8716;52.268;20.968;2023-06-26T06:26:29;38.90;66.00
17200;DHT22;8716;52.268;20.968;2023-06-26T06:28:59;39.10;64.20
17200;DHT22;8716;52.268;20.968;2023-06-26T06:31:28;39.50;62.70
17200;DHT22;8716;52.268;20.968;2023-06-26T06:33:56;39.60;62.00
17200;DHT22;8716;52.268;20.968;2023-06-26T06:36:24;40.00;60.00
17200;DHT22;8716;52.268;20.968;2023-06-26T06:38:54;40.40;59.40
17200;DHT22;8716;52.268;20.968;2023-06-26T06:41:22;40.80;57.70
17200;DHT22;8716;52.268;20.968;2023-06-26T06:43:51;41.10;56.90
17200;DHT22;8716;52.268;20.968;2023-06-26T06:46:19;41.50;55.20
17200;DHT22;8716;52.268;20.968;2023-06-26T06:48:47;41.40;54.40
17200;DHT22;8716;52.268;20.968;2023-06-26T06:51:16;41.60;55.10
17200;DHT22;8716;52.268;20.968;2023-06-26T06:53:44;42.10;54.10
17200;DHT22;8716;52.268;20.968;2023-06-26T06:56:14;42.30;53.30
17200;DHT22;8716;52.268;20.968;2023-06-26T06:58:42;42.50;52.10
17200;DHT22;8716;52.268;20.968;2023-06-26T07:01:13;42.70;50.70
17200;DHT22;8716;52.268;20.968;2023-06-26T07:03:41;43.00;49.40
17200;DHT22;8716;52.268;20.968;2023-06-26T07:06:10;43.20;49.30
17200;DHT22;8716;52.268;20.968;2023-06-26T07:08:38;43.00;48.60
17200;DHT22;8716;52.268;20.968;2023-06-26T07:11:06;42.80;48.90
17200;DHT22;8716;52.268;20.968;2023-06-26T07:13:36;42.90;48.10
17200;DHT22;8716;52.268;20.968;2023-06-26T07:16:05;43.00;47.50
17200;DHT22;8716;52.268;20.968;2023-06-26T07:18:33;43.10;47.20
17200;DHT22;8716;52.268;20.968;2023-06-26T07:21:05;43.60;46.60
17200;DHT22;8716;52.268;20.968;2023-06-26T07:23:33;43.70;46.40
17200;DHT22;8716;52.268;20.968;2023-06-26T07:26:02;44.10;45.80
17200;DHT22;8716;52.268;20.968;2023-06-26T07:28:32;44.30;45.40
17200;DHT22;8716;52.268;20.968;2023-06-26T07:31:02;44.50;45.10
17200;DHT22;8716;52.268;20.968;2023-06-26T07:33:31;44.80;45.10
17200;DHT22;8716;52.268;20.968;2023-06-26T07:36:00;44.70;45.10
17200;DHT22;8716;52.268;20.968;2023-06-26T07:38:40;45.00;44.90
17200;DHT22;8716;52.268;20.968;2023-06-26T07:41:08;45.30;44.30
17200;DHT22;8716;52.268;20.968;2023-06-26T07:43:36;45.30;43.70
17200;DHT22;8716;52.268;20.968;2023-06-26T07:46:06;45.50;43.60
17200;DHT22;8716;52.268;20.968;2023-06-26T07:48:35;45.10;44.70
17200;DHT22;8716;52.268;20.968;2023-06-26T07:51:03;44.60;44.20
17200;DHT22;8716;52.268;20.968;2023-06-26T07:53:31;44.20;45.10
17200;DHT22;8716;52.268;20.968;2023-06-26T07:56:00;44.30;44.80
17200;DHT22;8716;52.268;20.968;2023-06-26T07:58:28;44.40;45.00
17200;DHT22;8716;52.268;20.968;2023-06-26T08:00:57;44.50;45.00
17200;DHT22;8716;52.268;20.968;2023-06-26T08:03:26;44.40;44.50
17200;DHT22;8716;52.268;20.968;2023-06-26T08:06:01;43.90;44.60
17200;DHT22;8716;52.268;20.968;2023-06-26T08:08:30;42.60;45.20
17200;DHT22;8716;52.268;20.968;2023-06-26T08:10:58;41.20;46.10
17200;DHT22;8716;52.268;20.968;2023-06-26T08:13:27;40.40;47.50
17200;DHT22;8716;52.268;20.968;2023-06-26T08:15:55;40.40;48.00
17200;DHT22;8716;52.268;20.968;2023-06-26T08:18:24;41.10;47.20
17200;DHT22;8716;52.268;20.968;2023-06-26T08:20:54;41.20;46.20
17200;DHT22;8716;52.268;20.968;2023-06-26T08:23:23;40.60;47.30
17200;DHT22;8716;52.268;20.968;2023-06-26T08:25:52;40.80;47.50
17200;DHT22;8716;52.268;20.968;2023-06-26T08:28:21;40.60;47.60
17200;DHT22;8716;52.268;20.968;2023-06-26T08:30:49;40.50;47.80
17200;DHT22;8716;52.268;20.968;2023-06-26T08:33:18;39.70;48.10
17200;DHT22;8716;52.268;20.968;2023-06-26T08:35:46;38.80;48.80
17200;DHT22;8716;52.268;20.968;2023-06-26T08:38:16;37.80;50.00
17200;DHT22;8716;52.268;20.968;2023-06-26T08:40:47;36.90;51.00
17200;DHT22;8716;52.268;20.968;2023-06-26T08:43:15;36.30;52.00
17200;DHT22;8716;52.268;20.968;2023-06-26T08:45:44;36.20;52.20
17200;DHT22;8716;52.268;20.968;2023-06-26T08:48:13;37.10;52.40
17200;DHT22;8716;52.268;20.968;2023-06-26T08:50:43;38.40;49.30
17200;DHT22;8716;52.268;20.968;2023-06-26T08:53:19;39.70;48.00
17200;DHT22;8716;52.268;20.968;2023-06-26T08:55:52;41.00;46.30
17200;DHT22;8716;52.268;20.968;2023-06-26T08:58:21;42.30;44.50
17200;DHT22;8716;52.268;20.968;2023-06-26T09:00:49;43.20;43.30
17200;DHT22;8716;52.268;20.968;2023-06-26T09:03:18;43.90;42.50
17200;DHT22;8716;52.268;20.968;2023-06-26T09:05:46;44.30;42.10
17200;DHT22;8716;52.268;20.968;2023-06-26T09:08:19;44.80;42.00
17200;DHT22;8716;52.268;20.968;2023-06-26T09:10:47;45.40;41.80
17200;DHT22;8716;52.268;20.968;2023-06-26T09:13:19;45.60;41.20
17200;DHT22;8716;52.268;20.968;2023-06-26T09:15:56;46.00;41.10
17200;DHT22;8716;52.268;20.968;2023-06-26T09:18:24;46.30;40.70
17200;DHT22;8716;52.268;20.968;2023-06-26T09:20:53;46.80;39.90
17200;DHT22;8716;52.268;20.968;2023-06-26T09:23:24;46.80;39.00
17200;DHT22;8716;52.268;20.968;2023-06-26T09:25:52;46.90;38.60
17200;DHT22;8716;52.268;20.968;2023-06-26T09:28:21;47.20;38.50
17200;DHT22;8716;52.268;20.968;2023-06-26T09:30:49;47.10;38.40
17200;DHT22;8716;52.268;20.968;2023-06-26T09:33:19;47.10;38.40
17200;DHT22;8716;52.268;20.968;2023-06-26T09:35:48;47.20;38.40
17200;DHT22;8716;52.268;20.968;2023-06-26T09:38:16;46.60;38.10
17200;DHT22;8716;52.268;20.968;2023-06-26T09:40:46;45.00;38.60
17200;DHT22;8716;52.268;20.968;2023-06-26T09:43:15;43.20;40.20
17200;DHT22;8716;52.268;20.968;2023-06-26T09:45:43;41.60;41.60
17200;DHT22;8716;52.268;20.968;2023-06-26T09:48:14;40.10;43.50
17200;DHT22;8716;52.268;20.968;2023-06-26T09:50:44;39.20;45.20
17200;DHT22;8716;52.268;20.968;2023-06-26T09:53:35;39.50;45.30
17200;DHT22;8716;52.268;20.968;2023-06-26T09:56:07;40.30;44.30
17200;DHT22;8716;52.268;20.968;2023-06-26T09:58:36;41.10;44.10
17200;DHT22;8716;52.268;20.968;2023-06-26T10:01:06;41.20;43.30
17200;DHT22;8716;52.268;20.968;2023-06-26T10:03:36;40.50;43.40
17200;DHT22;8716;52.268;20.968;2023-06-26T10:06:05;39.50;44.10
17200;DHT22;8716;52.268;20.968;2023-06-26T10:08:34;39.10;45.30
17200;DHT22;8716;52.268;20.968;2023-06-26T10:11:14;39.50;44.90
17200;DHT22;8716;52.268;20.968;2023-06-26T10:13:45;40.10;43.80
17200;DHT22;8716;52.268;20.968;2023-06-26T10:16:19;40.80;42.00
17200;DHT22;8716;52.268;20.968;2023-06-26T10:18:51;41.30;41.70
17200;DHT22;8716;52.268;20.968;2023-06-26T10:21:22;41.70;40.70
17200;DHT22;8716;52.268;20.968;2023-06-26T10:23:52;42.10;40.40
17200;DHT22;8716;52.268;20.968;2023-06-26T10:26:26;42.60;40.00
17200;DHT22;8716;52.268;20.968;2023-06-26T10:28:56;43.00;40.00
17200;DHT22;8716;52.268;20.968;2023-06-26T10:31:26;43.30;39.50
17200;DHT22;8716;52.268;20.968;2023-06-26T10:33:59;43.30;40.00
17200;DHT22;8716;52.268;20.968;2023-06-26T10:36:30;43.20;40.10
17200;DHT22;8716;52.268;20.968;2023-06-26T10:39:03;43.20;40.10
17200;DHT22;8716;52.268;20.968;2023-06-26T10:41:38;43.10;40.00
17200;DHT22;8716;52.268;20.968;2023-06-26T10:44:40;43.10;40.00
17200;DHT22;8716;52.268;20.968;2023-06-26T10:47:10;43.10;40.00
17200;DHT22;8716;52.268;20.968;2023-06-26T10:49:40;43.00;39.80
17200;DHT22;8716;52.268;20.968;2023-06-26T10:52:36;42.80;40.60
17200;DHT22;8716;52.268;20.968;2023-06-26T10:55:08;42.20;40.60
17200;DHT22;8716;52.268;20.968;2023-06-26T10:57:38;41.10;41.40
17200;DHT22;8716;52.268;20.968;2023-06-26T11:00:09;40.00;42.60
17200;DHT22;8716;52.268;20.968;2023-06-26T11:02:48;38.80;44.00
17200;DHT22;8716;52.268;20.968;2023-06-26T11:05:24;37.80;45.10
17200;DHT22;8716;52.268;20.968;2023-06-26T11:08:04;37.60;45.70
17200;DHT22;8716;52.268;20.968;2023-06-26T11:10:49;37.70;46.10
17200;DHT22;8716;52.268;20.968;2023-06-26T11:13:22;37.70;45.90
17200;DHT22;8716;52.268;20.968;2023-06-26T11:15:50;37.80;45.10
17200;DHT22;8716;52.268;20.968;2023-06-26T11:18:19;37.80;45.50
17200;DHT22;8716;52.268;20.968;2023-06-26T11:20:48;37.90;45.50
17200;DHT22;8716;52.268;20.968;2023-06-26T11:23:21;37.90;46.10
17200;DHT22;8716;52.268;20.968;2023-06-26T11:25:50;37.60;45.00
17200;DHT22;8716;52.268;20.968;2023-06-26T11:28:22;37.10;45.40
17200;DHT22;8716;52.268;20.968;2023-06-26T11:30:51;36.80;46.20
17200;DHT22;8716;52.268;20.968;2023-06-26T11:33:26;36.80;46.50
17200;DHT22;8716;52.268;20.968;2023-06-26T11:35:55;36.80;46.60
17200;DHT22;8716;52.268;20.968;2023-06-26T11:38:23;36.70;46.30
17200;DHT22;8716;52.268;20.968;2023-06-26T11:40:52;36.80;45.80
17200;DHT22;8716;52.268;20.968;2023-06-26T11:43:20;36.80;45.00
17200;DHT22;8716;52.268;20.968;2023-06-26T11:45:51;36.70;45.00
17200;DHT22;8716;52.268;20.968;2023-06-26T11:48:19;36.60;45.30
17200;DHT22;8716;52.268;20.968;2023-06-26T11:50:50;36.50;44.60
17200;DHT22;8716;52.268;20.968;2023-06-26T11:53:19;36.40;44.90
17200;DHT22;8716;52.268;20.968;2023-06-26T11:55:47;36.20;45.30
17200;DHT22;8716;52.268;20.968;2023-06-26T11:58:18;35.80;45.30
17200;DHT22;8716;52.268;20.968;2023-06-26T12:00:48;35.50;45.60
17200;DHT22;8716;52.268;20.968;2023-06-26T12:03:18;35.20;46.40
17200;DHT22;8716;52.268;20.968;2023-06-26T12:05:46;34.80;47.10
17200;DHT22;8716;52.268;20.968;2023-06-26T12:08:15;34.40;47.80
17200;DHT22;8716;52.268;20.968;2023-06-26T12:10:45;34.10;48.30
17200;DHT22;8716;52.268;20.968;2023-06-26T12:13:14;33.80;48.40
17200;DHT22;8716;52.268;20.968;2023-06-26T12:15:42;33.50;48.80
17200;DHT22;8716;52.268;20.968;2023-06-26T12:18:10;33.30;49.10
17200;DHT22;8716;52.268;20.968;2023-06-26T12:20:41;33.30;49.20
17200;DHT22;8716;52.268;20.968;2023-06-26T12:23:12;33.10;49.70
17200;DHT22;8716;52.268;20.968;2023-06-26T12:25:41;33.10;50.00
17200;DHT22;8716;52.268;20.968;2023-06-26T12:28:16;33.10;50.50
17200;DHT22;8716;52.268;20.968;2023-06-26T12:31:14;33.20;50.40
17200;DHT22;8716;52.268;20.968;2023-06-26T12:33:43;33.20;50.30
17200;DHT22;8716;52.268;20.968;2023-06-26T12:36:15;33.10;50.40
17200;DHT22;8716;52.268;20.968;2023-06-26T12:38:45;33.00;50.80
17200;DHT22;8716;52.268;20.968;2023-06-26T12:41:14;32.90;50.90
17200;DHT22;8716;52.268;20.968;2023-06-26T12:43:43;32.70;51.40
17200;DHT22;8716;52.268;20.968;2023-06-26T12:46:11;32.70;51.60
17200;DHT22;8716;52.268;20.968;2023-06-26T12:48:43;32.60;51.40
17200;DHT22;8716;52.268;20.968;2023-06-26T12:51:16;32.50;51.90
17200;DHT22;8716;52.268;20.968;2023-06-26T12:53:44;32.50;51.80
17200;DHT22;8716;52.268;20.968;2023-06-26T12:56:13;32.50;53.00
17200;DHT22;8716;52.268;20.968;2023-06-26T12:58:43;32.70;52.30
17200;DHT22;8716;52.268;20.968;2023-06-26T13:01:11;32.70;52.10
17200;DHT22;8716;52.268;20.968;2023-06-26T13:03:42;32.80;51.90
17200;DHT22;8716;52.268;20.968;2023-06-26T13:06:11;32.80;51.70
17200;DHT22;8716;52.268;20.968;2023-06-26T13:08:43;32.80;51.30
17200;DHT22;8716;52.268;20.968;2023-06-26T13:11:15;32.90;51.30
17200;DHT22;8716;52.268;20.968;2023-06-26T13:13:52;32.90;51.40
17200;DHT22;8716;52.268;20.968;2023-06-26T13:16:36;33.00;51.10
17200;DHT22;8716;52.268;20.968;2023-06-26T13:19:05;32.90;51.30
17200;DHT22;8716;52.268;20.968;2023-06-26T13:21:34;32.90;51.40
17200;DHT22;8716;52.268;20.968;2023-06-26T13:24:04;33.00;51.40
17200;DHT22;8716;52.268;20.968;2023-06-26T13:26:33;33.00;51.10
17200;DHT22;8716;52.268;20.968;2023-06-26T13:29:04;32.80;50.90
17200;DHT22;8716;52.268;20.968;2023-06-26T13:31:33;32.80;50.60
17200;DHT22;8716;52.268;20.968;2023-06-26T13:34:02;32.70;51.00
17200;DHT22;8716;52.268;20.968;2023-06-26T13:36:32;32.60;50.90
17200;DHT22;8716;52.268;20.968;2023-06-26T13:39:03;32.40;50.90
17200;DHT22;8716;52.268;20.968;2023-06-26T13:41:32;32.30;51.00
17200;DHT22;8716;52.268;20.968;2023-06-26T13:44:00;32.30;51.30
17200;DHT22;8716;52.268;20.968;2023-06-26T13:46:35;32.30;51.50
17200;DHT22;8716;52.268;20.968;2023-06-26T13:49:03;32.20;51.50
17200;DHT22;8716;52.268;20.968;2023-06-26T13:51:32;32.30;51.90
17200;DHT22;8716;52.268;20.968;2023-06-26T13:54:00;32.30;52.00
17200;DHT22;8716;52.268;20.968;2023-06-26T13:56:30;32.30;51.90
17200;DHT22;8716;52.268;20.968;2023-06-26T13:59:00;32.50;51.90
17200;DHT22;8716;52.268;20.968;2023-06-26T14:01:29;32.50;51.80
17200;DHT22;8716;52.268;20.968;2023-06-26T14:03:58;32.50;51.80
17200;DHT22;8716;52.268;20.968;2023-06-26T14:06:27;32.50;51.50
17200;DHT22;8716;52.268;20.968;2023-06-26T14:08:56;32.30;51.40
17200;DHT22;8716;52.268;20.968;2023-06-26T14:11:26;32.10;51.90
17200;DHT22;8716;52.268;20.968;2023-06-26T14:13:56;32.00;52.00
17200;DHT22;8716;52.268;20.968;2023-06-26T14:16:25;31.90;51.80
17200;DHT22;8716;52.268;20.968;2023-06-26T14:18:56;31.80;52.10
17200;DHT22;8716;52.268;20.968;2023-06-26T14:21:24;31.70;52.40
17200;DHT22;8716;52.268;20.968;2023-06-26T14:23:54;31.60;52.50
17200;DHT22;8716;52.268;20.968;2023-06-26T14:26:22;31.40;52.60
17200;DHT22;8716;52.268;20.968;2023-06-26T14:28:51;31.30;52.50
17200;DHT22;8716;52.268;20.968;2023-06-26T14:31:20;31.10;52.80
17200;DHT22;8716;52.268;20.968;2023-06-26T14:33:49;31.10;52.90
17200;DHT22;8716;52.268;20.968;2023-06-26T14:36:17;31.00;53.00
17200;DHT22;8716;52.268;20.968;2023-06-26T14:38:46;31.00;53.10
17200;DHT22;8716;52.268;20.968;2023-06-26T14:41:15;30.90;53.10
17200;DHT22;8716;52.268;20.968;2023-06-26T14:43:44;30.80;53.10
17200;DHT22;8716;52.268;20.968;2023-06-26T14:46:13;30.70;53.40
17200;DHT22;8716;52.268;20.968;2023-06-26T14:48:43;30.70;53.70
17200;DHT22;8716;52.268;20.968;2023-06-26T14:51:12;30.70;53.80
17200;DHT22;8716;52.268;20.968;2023-06-26T14:53:41;30.80;54.00
17200;DHT22;8716;52.268;20.968;2023-06-26T14:56:11;30.80;53.70
17200;DHT22;8716;52.268;20.968;2023-06-26T14:58:42;31.00;53.80
17200;DHT22;8716;52.268;20.968;2023-06-26T15:01:10;31.00;53.70
17200;DHT22;8716;52.268;20.968;2023-06-26T15:03:39;31.00;53.80
17200;DHT22;8716;52.268;20.968;2023-06-26T15:06:08;31.00;53.70
17200;DHT22;8716;52.268;20.968;2023-06-26T15:08:37;31.00;53.50
17200;DHT22;8716;52.268;20.968;2023-06-26T15:11:05;31.10;53.60
17200;DHT22;8716;52.268;20.968;2023-06-26T15:13:33;31.00;53.60
17200;DHT22;8716;52.268;20.968;2023-06-26T15:16:02;30.80;53.50
17200;DHT22;8716;52.268;20.968;2023-06-26T15:18:30;30.70;53.60
17200;DHT22;8716;52.268;20.968;2023-06-26T15:20:58;30.60;53.90
17200;DHT22;8716;52.268;20.968;2023-06-26T15:23:28;30.50;54.00
17200;DHT22;8716;52.268;20.968;2023-06-26T15:25:57;30.40;54.40
17200;DHT22;8716;52.268;20.968;2023-06-26T15:28:25;30.30;54.60
17200;DHT22;8716;52.268;20.968;2023-06-26T15:30:54;30.20;54.90
17200;DHT22;8716;52.268;20.968;2023-06-26T15:33:22;30.00;55.10
17200;DHT22;8716;52.268;20.968;2023-06-26T15:35:50;30.00;55.40
17200;DHT22;8716;52.268;20.968;2023-06-26T15:38:18;29.90;55.50
17200;DHT22;8716;52.268;20.968;2023-06-26T15:40:48;29.80;55.60
17200;DHT22;8716;52.268;20.968;2023-06-26T15:43:17;29.70;55.90
17200;DHT22;8716;52.268;20.968;2023-06-26T15:45:45;29.60;56.30
17200;DHT22;8716;52.268;20.968;2023-06-26T15:48:13;29.50;56.50